createdAt,value
2018-11-06T00:00:15.653Z,66.85
2018-11-06T00:00:50.289Z,65.50
2018-11-06T00:01:24.625Z,65.92
2018-11-06T00:01:58.759Z,69.72
2018-11-06T00:02:32.863Z,67.00
2018-11-06T00:03:12.567Z,68.37
2018-11-06T00:03:48.423Z,62.23
2018-11-06T00:04:26.771Z,60.17
2018-11-06T00:05:06.228Z,74.12
2018-11-06T00:05:40.309Z,63.30
2018-11-06T00:06:15.123Z,72.32
2018-11-06T00:06:50.321Z,65.57
2018-11-06T00:07:24.437Z,65.55
2018-11-06T00:07:58.903Z,62.90
2018-11-06T00:08:33.011Z,62.38
2018-11-06T00:09:08.443Z,65.57
2018-11-06T00:09:45.773Z,71.62
2018-11-06T00:10:19.959Z,71.25
2018-11-06T00:10:54.044Z,69.70
2018-11-06T00:11:28.145Z,66.00
2018-11-06T00:12:02.289Z,60.10
2018-11-06T00:12:36.386Z,73.42
2018-11-06T00:13:10.503Z,61.77
2018-11-06T00:13:44.967Z,70.65
2018-11-06T00:14:19.057Z,69.15
2018-11-06T00:14:53.130Z,65.92
2018-11-06T00:15:28.032Z,69.47
2018-11-06T00:16:02.469Z,72.97
2018-11-06T00:16:36.558Z,64.03
2018-11-06T00:17:11.061Z,70.78
2018-11-06T00:17:45.597Z,70.87
2018-11-06T00:18:19.795Z,69.22
2018-11-06T00:18:54.603Z,65.35
2018-11-06T00:19:28.912Z,63.35
2018-11-06T00:20:03.200Z,62.95
2018-11-06T00:20:37.333Z,68.35
2018-11-06T00:21:11.833Z,73.15
2018-11-06T00:21:46.138Z,65.28
2018-11-06T00:22:20.440Z,71.37
2018-11-06T00:22:55.107Z,82.12
2018-11-06T00:23:30.101Z,67.40
2018-11-06T00:24:04.247Z,68.42
2018-11-06T00:24:38.352Z,68.85
2018-11-06T00:25:13.314Z,66.05
2018-11-06T00:25:47.426Z,64.65
2018-11-06T00:26:21.524Z,63.02
2018-11-06T00:26:55.629Z,60.10
2018-11-06T00:27:30.118Z,62.30
2018-11-06T00:28:04.486Z,70.80
2018-11-06T00:28:38.598Z,72.08
2018-11-06T00:29:12.700Z,64.65
2018-11-06T00:29:46.782Z,68.17
2018-11-06T00:30:20.898Z,71.20
2018-11-06T00:30:54.992Z,63.73
2018-11-06T00:31:29.138Z,78.35
2018-11-06T00:32:03.592Z,72.70
2018-11-06T00:32:38.497Z,74.55
2018-11-06T00:33:12.591Z,75.03
2018-11-06T00:33:46.696Z,68.22
2018-11-06T00:34:21.016Z,72.00
2018-11-06T00:34:55.192Z,71.60
2018-11-06T00:35:29.638Z,76.15
2018-11-06T00:36:03.722Z,67.78
2018-11-06T00:36:37.827Z,66.30
2018-11-06T00:37:12.118Z,64.15
2018-11-06T00:37:46.248Z,68.90
2018-11-06T00:38:20.318Z,67.80
2018-11-06T00:38:54.443Z,69.10
2018-11-06T00:39:28.556Z,63.92
2018-11-06T00:40:03.309Z,62.00
2018-11-06T00:40:37.766Z,65.12
2018-11-06T00:41:11.897Z,68.52
2018-11-06T00:41:46.353Z,64.00
2018-11-06T00:42:20.465Z,67.05
2018-11-06T00:42:54.597Z,64.35
2018-11-06T00:43:28.816Z,68.07
2018-11-06T00:44:03.722Z,61.77
2018-11-06T00:44:38.218Z,70.17
2018-11-06T00:45:14.581Z,60.67
2018-11-06T00:45:48.696Z,64.72
2018-11-06T00:46:22.821Z,68.60
2018-11-06T00:46:56.956Z,63.48
2018-11-06T00:47:31.082Z,65.87
2018-11-06T00:48:06.237Z,69.85
2018-11-06T00:48:40.680Z,62.38
2018-11-06T00:49:15.108Z,67.12
2018-11-06T00:49:49.263Z,64.62
2018-11-06T00:50:24.038Z,65.30
2018-11-06T00:50:58.133Z,70.25
2018-11-06T00:51:32.264Z,65.92
2018-11-06T00:52:06.373Z,73.72
2018-11-06T00:52:41.978Z,67.67
2018-11-06T00:53:16.469Z,66.75
2018-11-06T00:53:50.796Z,60.70
2018-11-06T00:54:24.913Z,64.87
2018-11-06T00:54:59.022Z,68.02
2018-11-06T00:55:33.114Z,66.15
2018-11-06T00:56:07.550Z,57.58
2018-11-06T00:56:42.020Z,73.02
2018-11-06T00:57:16.131Z,67.97
2018-11-06T00:57:50.318Z,65.85
2018-11-06T00:58:25.020Z,60.70
2018-11-06T00:59:01.416Z,62.95
2018-11-06T00:59:35.879Z,68.65
2018-11-06T01:00:12.866Z,70.45
2018-11-06T01:00:48.207Z,70.95
2018-11-06T01:01:22.369Z,67.90
2018-11-06T01:01:56.667Z,67.97
2018-11-06T01:02:33.271Z,67.75
2018-11-06T01:03:08.428Z,62.53
2018-11-06T01:03:55.667Z,62.80
2018-11-06T01:04:29.914Z,64.53
2018-11-06T01:05:04.940Z,67.05
2018-11-06T01:05:39.406Z,63.75
2018-11-06T01:06:13.876Z,62.20
2018-11-06T01:06:48.485Z,69.90
2018-11-06T01:07:23.134Z,74.12
2018-11-06T01:07:57.596Z,69.03
2018-11-06T01:08:32.015Z,64.95
2018-11-06T01:09:09.260Z,61.58
2018-11-06T01:09:43.366Z,64.92
2018-11-06T01:10:17.490Z,67.80
2018-11-06T01:10:53.341Z,65.20
2018-11-06T01:11:27.455Z,65.40
2018-11-06T01:12:02.964Z,68.55
2018-11-06T01:12:37.348Z,64.77
2018-11-06T01:13:13.128Z,62.85
2018-11-06T01:13:49.248Z,62.17
2018-11-06T01:14:25.909Z,69.90
2018-11-06T01:15:00.742Z,64.97
2018-11-06T01:15:35.470Z,70.52
2018-11-06T01:16:09.911Z,68.85
2018-11-06T01:16:45.194Z,69.30
2018-11-06T01:17:19.299Z,60.48
2018-11-06T01:17:53.409Z,68.57
2018-11-06T01:18:27.558Z,60.55
2018-11-06T01:19:01.746Z,65.08
2018-11-06T01:19:37.123Z,65.03
2018-11-06T01:20:14.164Z,61.35
2018-11-06T01:20:48.305Z,64.05
2018-11-06T01:21:22.719Z,62.17
2018-11-06T01:21:57.021Z,64.85
2018-11-06T01:22:31.624Z,64.50
2018-11-06T01:23:06.207Z,66.42
2018-11-06T01:23:40.751Z,62.17
2018-11-06T01:24:16.194Z,62.15
2018-11-06T01:24:52.442Z,66.20
2018-11-06T01:25:26.541Z,59.93
2018-11-06T01:26:00.639Z,63.60
2018-11-06T01:26:34.814Z,63.80
2018-11-06T01:27:10.989Z,68.75
2018-11-06T01:27:45.325Z,61.53
2018-11-06T01:28:19.801Z,65.37
2018-11-06T01:28:54.296Z,60.12
2018-11-06T01:29:28.838Z,67.05
2018-11-06T01:30:06.584Z,57.73
2018-11-06T01:30:40.704Z,57.43
2018-11-06T01:31:16.009Z,67.40
2018-11-06T01:31:50.107Z,59.30
2018-11-06T01:32:26.688Z,57.53
2018-11-06T01:33:00.812Z,57.00
2018-11-06T01:33:36.307Z,63.55
2018-11-06T01:34:12.146Z,58.17
2018-11-06T01:34:46.288Z,63.83
2018-11-06T01:35:23.012Z,59.75
2018-11-06T01:35:57.456Z,58.00
2018-11-06T01:36:31.540Z,62.15
2018-11-06T01:37:06.014Z,65.12
2018-11-06T01:37:41.103Z,58.78
2018-11-06T01:38:15.208Z,62.88
2018-11-06T01:38:49.483Z,61.75
2018-11-06T01:39:23.875Z,58.23
2018-11-06T01:39:57.966Z,65.22
2018-11-06T01:40:33.480Z,61.70
2018-11-06T01:41:12.087Z,57.73
2018-11-06T01:41:48.203Z,59.27
2018-11-06T01:42:23.895Z,60.88
2018-11-06T01:42:58.680Z,58.52
2018-11-06T01:43:35.939Z,62.20
2018-11-06T01:44:11.758Z,73.60
2018-11-06T01:44:45.877Z,53.20
2018-11-06T01:45:21.024Z,58.48
2018-11-06T01:45:56.902Z,63.60
2018-11-06T01:46:31.189Z,58.70
2018-11-06T01:47:05.699Z,61.83
2018-11-06T01:47:40.973Z,62.35
2018-11-06T01:48:15.064Z,55.17
2018-11-06T01:48:50.431Z,57.93
2018-11-06T01:49:24.563Z,54.83
2018-11-06T01:49:59.881Z,57.45
2018-11-06T01:50:34.003Z,62.03
2018-11-06T01:51:09.918Z,55.92
2018-11-06T01:51:44.648Z,56.58
2018-11-06T01:52:19.036Z,54.83
2018-11-06T01:52:53.137Z,57.00
2018-11-06T01:53:28.520Z,53.98
2018-11-06T01:54:04.393Z,56.95
2018-11-06T01:54:38.841Z,60.73
2018-11-06T01:55:14.402Z,53.23
2018-11-06T01:55:48.477Z,55.03
2018-11-06T01:56:22.601Z,60.75
2018-11-06T01:56:56.699Z,56.42
2018-11-06T01:57:30.823Z,61.60
2018-11-06T01:58:05.106Z,53.98
2018-11-06T01:58:39.214Z,51.25
2018-11-06T01:59:13.311Z,55.65
2018-11-06T01:59:47.400Z,56.20
2018-11-06T02:00:21.837Z,51.92
2018-11-06T02:05:56.454Z,50.25
2018-11-06T02:06:30.903Z,53.98
2018-11-06T02:07:05.193Z,52.27
2018-11-06T02:07:39.921Z,52.58
2018-11-06T02:08:14.040Z,59.77
2018-11-06T02:08:48.168Z,57.85
2018-11-06T02:09:22.264Z,58.87
2018-11-06T02:09:56.730Z,55.88
2018-11-06T02:10:30.804Z,52.38
2018-11-06T02:11:04.897Z,59.23
2018-11-06T02:11:39.670Z,55.80
2018-11-06T02:12:14.182Z,53.45
2018-11-06T02:12:48.517Z,55.63
2018-11-06T02:13:25.016Z,58.48
2018-11-06T02:13:59.097Z,52.95
2018-11-06T02:14:33.888Z,61.30
2018-11-06T02:15:09.785Z,52.90
2018-11-06T02:15:44.558Z,54.18
2018-11-06T02:16:20.406Z,53.25
2018-11-06T02:16:54.958Z,51.30
2018-11-06T02:17:29.116Z,51.45
2018-11-06T02:18:05.137Z,58.80
2018-11-06T02:18:40.619Z,51.85
2018-11-06T02:19:16.024Z,50.73
2018-11-06T02:19:51.988Z,51.90
2018-11-06T02:20:26.090Z,52.85
2018-11-06T02:21:01.872Z,55.33
2018-11-06T02:21:38.018Z,48.78
2018-11-06T02:22:12.256Z,59.15
2018-11-06T02:22:48.628Z,58.38
2018-11-06T02:23:23.872Z,57.55
2018-11-06T02:23:59.386Z,54.93
2018-11-06T02:24:34.714Z,51.98
2018-11-06T02:25:09.449Z,49.42
2018-11-06T02:25:47.397Z,53.55
2018-11-06T02:26:23.724Z,47.80
2018-11-06T02:26:59.018Z,50.23
2018-11-06T02:27:33.817Z,47.08
2018-11-06T02:28:08.904Z,46.73
2018-11-06T02:28:43.812Z,50.92
2018-11-06T02:29:19.500Z,51.73
2018-11-06T02:29:54.182Z,46.13
2018-11-06T02:30:29.224Z,50.48
2018-11-06T02:31:03.921Z,50.60
2018-11-06T02:31:39.848Z,54.65
2018-11-06T02:32:14.025Z,55.63
2018-11-06T02:32:48.803Z,50.10
2018-11-06T02:33:23.838Z,55.15
2018-11-06T02:33:58.001Z,56.42
2018-11-06T02:34:33.699Z,49.58
2018-11-06T02:35:09.508Z,56.35
2018-11-06T02:35:44.703Z,51.77
2018-11-06T02:36:20.347Z,47.75
2018-11-06T02:36:55.461Z,50.35
2018-11-06T02:37:31.322Z,57.80
2018-11-06T02:38:06.012Z,51.18
2018-11-06T02:38:40.394Z,50.28
2018-11-06T02:39:16.284Z,50.73
2018-11-06T02:39:53.320Z,51.20
2018-11-06T02:40:27.825Z,46.60
2018-11-06T02:41:02.644Z,49.40
2018-11-06T02:41:38.254Z,54.08
2018-11-06T02:42:12.424Z,47.10
2018-11-06T02:42:46.680Z,50.98
2018-11-06T02:43:21.122Z,47.85
2018-11-06T02:43:55.280Z,48.75
2018-11-06T02:44:30.126Z,47.08
2018-11-06T02:45:06.352Z,52.33
2018-11-06T02:45:41.564Z,52.30
2018-11-06T02:46:15.694Z,49.42
2018-11-06T02:46:49.792Z,45.25
2018-11-06T02:47:24.224Z,49.03
2018-11-06T02:47:58.349Z,47.05
2018-11-06T02:48:32.745Z,46.28
2018-11-06T02:49:07.059Z,44.93
2018-11-06T02:49:41.276Z,42.48
2018-11-06T02:50:18.020Z,48.20
2018-11-06T02:50:52.164Z,43.75
2018-11-06T02:51:28.871Z,47.65
2018-11-06T02:52:05.404Z,48.28
2018-11-06T02:52:39.721Z,45.05
2018-11-06T02:53:15.141Z,47.00
2018-11-06T02:53:51.223Z,49.65
2018-11-06T02:54:26.117Z,46.90
2018-11-06T02:55:01.980Z,51.85
2018-11-06T02:55:38.079Z,48.13
2018-11-06T02:56:12.742Z,50.28
2018-11-06T02:56:47.803Z,45.33
2018-11-06T02:57:22.880Z,52.35
2018-11-06T02:57:57.024Z,49.75
2018-11-06T02:58:32.536Z,43.13
2018-11-06T02:59:08.330Z,44.90
2018-11-06T02:59:42.667Z,48.75
2018-11-06T03:00:17.784Z,50.60
2018-11-06T03:00:54.018Z,46.35
2018-11-06T03:01:29.934Z,46.30
2018-11-06T03:02:05.599Z,44.88
2018-11-06T03:02:40.872Z,46.42
2018-11-06T03:03:14.980Z,42.15
2018-11-06T03:03:50.537Z,45.60
2018-11-06T03:04:26.036Z,50.48
2018-11-06T03:05:01.856Z,46.60
2018-11-06T03:05:36.308Z,43.45
2018-11-06T03:06:13.681Z,44.58
2018-11-06T03:06:48.277Z,47.15
2018-11-06T03:07:22.715Z,46.25
2018-11-06T03:07:58.570Z,47.45
2018-11-06T03:08:33.674Z,45.63
2018-11-06T03:09:09.264Z,43.42
2018-11-06T03:09:44.338Z,41.55
2018-11-06T03:10:19.695Z,42.62
2018-11-06T03:10:53.964Z,45.73
2018-11-06T03:11:29.059Z,41.80
2018-11-06T03:12:04.690Z,45.08
2018-11-06T03:12:41.764Z,49.67
2018-11-06T03:13:15.894Z,46.50
2018-11-06T03:13:51.291Z,45.75
2018-11-06T03:14:27.088Z,43.87
2018-11-06T03:15:01.532Z,47.95
2018-11-06T03:15:37.090Z,48.25
2018-11-06T03:16:18.566Z,45.35
2018-11-06T03:16:55.924Z,46.63
2018-11-06T03:17:30.936Z,48.90
2018-11-06T03:18:06.331Z,46.75
2018-11-06T03:18:40.812Z,42.23
2018-11-06T03:19:15.968Z,43.48
2018-11-06T03:19:53.001Z,43.50
2018-11-06T03:20:27.480Z,44.30
2018-11-06T03:21:01.602Z,43.85
2018-11-06T03:21:35.836Z,41.33
2018-11-06T03:22:13.016Z,42.15
2018-11-06T03:22:48.445Z,41.13
2018-11-06T03:23:22.588Z,44.03
2018-11-06T03:23:56.881Z,48.83
2018-11-06T03:24:32.921Z,46.37
2018-11-06T03:25:07.370Z,45.55
2018-11-06T03:25:43.045Z,36.98
2018-11-06T03:26:17.144Z,47.75
2018-11-06T03:26:51.317Z,42.20
2018-11-06T03:27:27.580Z,41.30
2018-11-06T03:28:03.228Z,49.25
2018-11-06T03:28:37.329Z,41.25
2018-11-06T03:29:11.530Z,44.38
2018-11-06T03:29:45.642Z,44.85
2018-11-06T03:30:20.715Z,43.33
2018-11-06T03:30:55.021Z,39.38
2018-11-06T03:31:29.121Z,43.65
2018-11-06T03:32:04.273Z,43.33
2018-11-06T03:32:40.715Z,44.27
2018-11-06T03:33:14.832Z,47.48
2018-11-06T03:33:48.953Z,43.42
2018-11-06T03:34:25.596Z,41.98
2018-11-06T03:35:00.072Z,42.43
2018-11-06T03:35:34.398Z,38.67
2018-11-06T03:36:09.343Z,46.23
2018-11-06T03:36:45.110Z,38.33
2018-11-06T03:37:20.437Z,46.20
2018-11-06T03:37:56.317Z,40.63
2018-11-06T03:38:30.620Z,40.83
2018-11-06T03:39:07.146Z,42.33
2018-11-06T03:39:41.704Z,43.10
2018-11-06T03:40:16.139Z,42.98
2018-11-06T03:40:51.426Z,41.05
2018-11-06T03:41:27.654Z,39.15
2018-11-06T03:42:01.737Z,45.48
2018-11-06T03:42:40.142Z,44.95
2018-11-06T03:43:18.764Z,37.48
2018-11-06T03:43:54.001Z,47.38
2018-11-06T03:44:28.117Z,43.92
2018-11-06T03:45:03.918Z,41.50
2018-11-06T03:45:38.970Z,41.53
2018-11-06T03:46:13.108Z,39.48
2018-11-06T03:46:47.224Z,41.18
2018-11-06T03:47:22.589Z,43.15
2018-11-06T03:47:58.410Z,40.35
2018-11-06T03:48:35.305Z,41.23
2018-11-06T03:49:09.421Z,40.43
2018-11-06T03:49:44.711Z,46.25
2018-11-06T03:50:18.868Z,43.85
2018-11-06T03:50:53.977Z,45.65
2018-11-06T03:51:30.749Z,39.75
2018-11-06T03:52:05.098Z,39.75
2018-11-06T03:52:39.561Z,41.65
2018-11-06T03:53:14.995Z,41.10
2018-11-06T03:53:51.108Z,45.35
2018-11-06T03:54:27.237Z,42.85
2018-11-06T03:55:02.637Z,39.73
2018-11-06T03:55:38.598Z,42.53
2018-11-06T03:56:12.827Z,42.83
2018-11-06T03:56:47.166Z,38.00
2018-11-06T03:57:21.842Z,44.98
2018-11-06T03:57:57.311Z,41.40
2018-11-06T03:58:32.090Z,43.38
2018-11-06T03:59:09.065Z,43.55
2018-11-06T03:59:43.488Z,45.60
2018-11-06T04:00:17.904Z,43.30
2018-11-06T04:00:52.755Z,44.53
2018-11-06T04:01:27.341Z,45.98
2018-11-06T04:02:02.953Z,47.73
2018-11-06T04:02:37.571Z,39.70
2018-11-06T04:03:13.513Z,42.83
2018-11-06T04:03:48.613Z,43.10
2018-11-06T04:04:25.169Z,44.98
2018-11-06T04:04:59.292Z,43.65
2018-11-06T04:05:33.362Z,41.70
2018-11-06T04:06:07.988Z,41.85
2018-11-06T04:06:42.420Z,41.08
2018-11-06T04:07:17.987Z,42.60
2018-11-06T04:07:52.121Z,46.10
2018-11-06T04:08:28.794Z,38.23
2018-11-06T04:09:03.287Z,41.77
2018-11-06T04:09:39.853Z,43.00
2018-11-06T04:10:16.398Z,44.48
2018-11-06T04:10:50.514Z,43.35
2018-11-06T04:11:26.573Z,40.12
2018-11-06T04:12:00.717Z,42.85
2018-11-06T04:12:35.145Z,41.58
2018-11-06T04:13:09.281Z,36.60
2018-11-06T04:13:45.324Z,39.92
2018-11-06T04:14:19.433Z,37.40
2018-11-06T04:14:55.691Z,43.50
2018-11-06T04:15:29.755Z,37.93
2018-11-06T04:16:03.836Z,46.02
2018-11-06T04:16:39.670Z,38.65
2018-11-06T04:17:13.767Z,41.35
2018-11-06T04:17:49.677Z,42.05
2018-11-06T04:18:25.427Z,41.13
2018-11-06T04:18:59.550Z,42.48
2018-11-06T04:19:33.993Z,40.88
2018-11-06T04:20:10.338Z,43.52
2018-11-06T04:20:44.438Z,39.70
2018-11-06T04:21:23.022Z,43.58
2018-11-06T04:21:57.213Z,41.18
2018-11-06T04:22:33.073Z,38.20
2018-11-06T04:23:07.492Z,37.13
2018-11-06T04:23:41.694Z,43.30
2018-11-06T04:24:17.023Z,42.40
2018-11-06T04:24:52.490Z,42.73
2018-11-06T04:25:29.611Z,37.85
2018-11-06T04:26:05.613Z,39.90
2018-11-06T04:26:40.598Z,41.35
2018-11-06T04:27:17.120Z,42.03
2018-11-06T04:27:52.752Z,41.50
2018-11-06T04:28:27.695Z,47.08
2018-11-06T04:29:02.234Z,38.38
2018-11-06T04:29:36.382Z,36.42
2018-11-06T04:30:13.357Z,44.27
2018-11-06T04:30:49.303Z,46.73
2018-11-06T04:31:24.504Z,41.73
2018-11-06T04:31:58.611Z,41.00
2018-11-06T04:32:33.909Z,40.65
2018-11-06T04:33:08.650Z,40.40
2018-11-06T04:33:43.865Z,41.18
2018-11-06T04:34:17.935Z,43.10
2018-11-06T04:34:53.957Z,39.53
2018-11-06T04:35:28.439Z,44.63
2018-11-06T04:36:04.986Z,41.90
2018-11-06T04:36:39.057Z,39.08
2018-11-06T04:37:14.197Z,42.20
2018-11-06T04:37:48.316Z,42.40
2018-11-06T04:38:23.909Z,36.98
2018-11-06T04:38:58.707Z,40.48
2018-11-06T04:39:32.793Z,40.05
2018-11-06T04:40:09.427Z,40.70
2018-11-06T04:40:44.505Z,33.75
2018-11-06T04:41:20.868Z,39.60
2018-11-06T04:41:54.956Z,44.00
2018-11-06T04:42:30.057Z,40.90
2018-11-06T04:43:04.661Z,41.28
2018-11-06T04:43:39.841Z,34.20
2018-11-06T04:44:14.013Z,41.08
2018-11-06T04:44:49.595Z,40.52
2018-11-06T04:45:23.717Z,37.05
2018-11-06T04:45:58.740Z,45.33
2018-11-06T04:46:34.477Z,42.35
2018-11-06T04:47:10.499Z,39.88
2018-11-06T04:47:46.534Z,38.98
2018-11-06T04:48:20.629Z,40.43
2018-11-06T04:48:55.394Z,41.68
2018-11-06T04:49:29.645Z,39.60
2018-11-06T04:50:05.435Z,44.05
2018-11-06T04:50:41.328Z,35.40
2018-11-06T04:51:16.391Z,40.90
2018-11-06T04:51:53.757Z,36.55
2018-11-06T04:52:27.861Z,39.20
2018-11-06T04:53:01.953Z,38.78
2018-11-06T04:53:36.673Z,39.98
2018-11-06T04:54:11.133Z,38.35
2018-11-06T04:54:45.211Z,44.85
2018-11-06T04:55:19.641Z,47.67
2018-11-06T04:55:53.737Z,43.45
2018-11-06T04:56:28.917Z,42.65
2018-11-06T04:57:03.069Z,38.33
2018-11-06T04:57:37.147Z,43.42
2018-11-06T04:58:11.278Z,46.25
2018-11-06T04:58:45.375Z,38.05
2018-11-06T04:59:19.820Z,38.85
2018-11-06T04:59:53.895Z,40.17
2018-11-06T05:00:28.014Z,41.18
2018-11-06T05:01:02.683Z,39.40
2018-11-06T05:01:37.094Z,39.75
2018-11-06T05:02:11.611Z,44.33
2018-11-06T05:02:46.184Z,39.18
2018-11-06T05:03:20.284Z,39.90
2018-11-06T05:03:54.361Z,40.40
2018-11-06T05:04:28.458Z,38.40
2018-11-06T05:05:02.889Z,38.60
2018-11-06T05:05:37.027Z,34.90
2018-11-06T05:06:11.176Z,39.20
2018-11-06T05:06:45.682Z,39.03
2018-11-06T05:07:20.129Z,37.40
2018-11-06T05:07:54.615Z,41.08
2018-11-06T05:08:28.722Z,42.50
2018-11-06T05:09:03.666Z,38.48
2018-11-06T05:09:37.791Z,43.38
2018-11-06T05:10:13.367Z,39.30
2018-11-06T05:10:47.436Z,40.38
2018-11-06T05:11:21.639Z,41.77
2018-11-06T05:11:55.739Z,41.77
2018-11-06T05:12:29.869Z,43.20
2018-11-06T05:13:04.625Z,40.48
2018-11-06T05:13:38.747Z,39.03
2018-11-06T05:14:12.907Z,43.20
2018-11-06T05:14:47.155Z,34.53
2018-11-06T05:15:21.617Z,50.10
2018-11-06T05:15:56.074Z,35.65
2018-11-06T05:16:30.519Z,45.55
2018-11-06T05:17:04.610Z,39.40
2018-11-06T05:17:44.549Z,39.48
2018-11-06T05:18:24.318Z,37.13
2018-11-06T05:19:04.252Z,38.78
2018-11-06T05:19:44.060Z,40.65
2018-11-06T05:20:23.960Z,40.25
2018-11-06T05:21:03.793Z,40.10
2018-11-06T05:21:43.559Z,39.20
2018-11-06T05:22:23.733Z,44.77
2018-11-06T05:23:03.669Z,43.23
2018-11-06T05:23:43.607Z,40.90
2018-11-06T05:24:23.260Z,38.95
2018-11-06T05:25:03.560Z,43.05
2018-11-06T05:25:43.346Z,40.30
2018-11-06T05:26:23.248Z,36.75
2018-11-06T05:27:03.929Z,40.23
2018-11-06T05:27:43.866Z,38.83
2018-11-06T05:28:23.810Z,37.90
2018-11-06T05:29:04.012Z,48.33
2018-11-06T05:29:38.116Z,43.20
2018-11-06T05:30:12.677Z,37.85
2018-11-06T05:30:47.090Z,43.08
2018-11-06T05:31:21.158Z,39.58
2018-11-06T05:31:55.230Z,43.55
2018-11-06T05:32:29.327Z,39.27
2018-11-06T05:33:03.824Z,35.25
2018-11-06T05:33:38.104Z,35.60
2018-11-06T05:34:12.246Z,36.17
2018-11-06T05:34:47.253Z,39.70
2018-11-06T05:35:21.493Z,35.43
2018-11-06T05:35:55.570Z,36.53
2018-11-06T05:36:29.698Z,41.53
2018-11-06T05:37:04.136Z,40.12
2018-11-06T05:37:38.442Z,34.58
2018-11-06T05:38:12.882Z,40.50
2018-11-06T05:38:47.401Z,38.28
2018-11-06T05:39:21.697Z,37.48
2018-11-06T05:40:07.621Z,34.60
2018-11-06T05:40:58.524Z,47.93
2018-11-06T05:41:33.317Z,40.00
2018-11-06T05:42:07.382Z,41.83
2018-11-06T05:42:41.649Z,38.53
2018-11-06T05:43:16.089Z,37.48
2018-11-06T05:43:50.235Z,39.10
2018-11-06T05:44:24.544Z,42.65
2018-11-06T05:44:58.647Z,37.95
2018-11-06T05:45:33.075Z,39.63
2018-11-06T05:46:07.663Z,40.23
2018-11-06T05:46:41.771Z,38.00
2018-11-06T05:47:16.073Z,42.13
2018-11-06T05:47:50.173Z,33.40
2018-11-06T05:48:24.309Z,46.30
2018-11-06T05:48:58.755Z,39.35
2018-11-06T05:49:32.848Z,36.83
2018-11-06T05:50:07.315Z,40.45
2018-11-06T05:50:41.749Z,38.08
2018-11-06T05:51:15.852Z,40.65
2018-11-06T05:51:50.265Z,40.03
2018-11-06T05:52:24.374Z,37.42
2018-11-06T05:52:58.846Z,41.23
2018-11-06T05:53:33.461Z,40.20
2018-11-06T05:54:07.584Z,34.15
2018-11-06T05:54:41.683Z,33.25
2018-11-06T05:55:15.765Z,37.33
2018-11-06T05:55:50.525Z,36.60
2018-11-06T05:56:24.665Z,33.60
2018-11-06T05:56:58.801Z,38.95
2018-11-06T05:57:33.247Z,36.98
2018-11-06T05:58:07.438Z,33.35
2018-11-06T05:58:41.593Z,37.88
2018-11-06T05:59:15.711Z,37.73
2018-11-06T05:59:49.834Z,38.75
2018-11-06T06:00:23.941Z,32.33
2018-11-06T06:00:58.235Z,40.83
2018-11-06T06:01:32.325Z,35.55
2018-11-06T06:02:06.758Z,34.23
2018-11-06T06:02:41.095Z,35.38
2018-11-06T06:03:16.701Z,45.38
2018-11-06T06:03:51.098Z,35.15
2018-11-06T06:04:25.308Z,34.80
2018-11-06T06:04:59.439Z,36.90
2018-11-06T06:05:34.027Z,38.98
2018-11-06T06:06:08.460Z,36.83
2018-11-06T06:06:42.565Z,36.93
2018-11-06T06:07:17.055Z,43.25
2018-11-06T06:07:51.161Z,34.05
2018-11-06T06:08:25.241Z,41.37
2018-11-06T06:08:59.347Z,34.05
2018-11-06T06:09:36.099Z,38.28
2018-11-06T06:10:10.291Z,36.15
2018-11-06T06:10:47.092Z,36.63
2018-11-06T06:11:21.999Z,34.60
2018-11-06T06:11:57.186Z,36.58
2018-11-06T06:12:31.291Z,36.65
2018-11-06T06:13:07.435Z,40.98
2018-11-06T06:13:41.520Z,38.10
2018-11-06T06:14:15.618Z,42.23
2018-11-06T06:14:50.821Z,37.73
2018-11-06T06:15:25.273Z,37.45
2018-11-06T06:15:59.858Z,35.10
2018-11-06T06:16:33.960Z,37.98
2018-11-06T06:17:08.292Z,36.60
2018-11-06T06:17:42.566Z,38.98
2018-11-06T06:18:16.652Z,37.58
2018-11-06T06:18:51.098Z,44.55
2018-11-06T06:19:25.172Z,32.98
2018-11-06T06:19:59.273Z,42.33
2018-11-06T06:20:33.403Z,41.00
2018-11-06T06:21:07.881Z,32.58
2018-11-06T06:21:41.981Z,36.42
2018-11-06T06:22:16.135Z,34.98
2018-11-06T06:22:50.383Z,33.23
2018-11-06T06:23:24.515Z,40.98
2018-11-06T06:23:59.057Z,37.33
2018-11-06T06:24:33.174Z,38.78
2018-11-06T06:25:07.962Z,35.20
2018-11-06T06:25:42.414Z,36.85
2018-11-06T06:26:16.523Z,34.08
2018-11-06T06:26:50.884Z,35.95
2018-11-06T06:27:25.301Z,39.18
2018-11-06T06:27:59.528Z,36.63
2018-11-06T06:28:34.379Z,35.30
2018-11-06T06:29:08.990Z,36.08
2018-11-06T06:29:43.111Z,36.77
2018-11-06T06:30:17.946Z,37.60
2018-11-06T06:30:52.038Z,33.85
2018-11-06T06:31:26.207Z,39.15
2018-11-06T06:32:00.304Z,36.63
2018-11-06T06:32:34.430Z,37.35
2018-11-06T06:33:08.863Z,39.03
2018-11-06T06:33:43.016Z,34.15
2018-11-06T06:34:17.136Z,35.38
2018-11-06T06:34:51.239Z,39.35
2018-11-06T06:35:25.340Z,35.78
2018-11-06T06:35:59.434Z,39.00
2018-11-06T06:36:33.567Z,41.08
2018-11-06T06:37:08.027Z,38.53
2018-11-06T06:37:42.736Z,37.70
2018-11-06T06:38:16.845Z,34.43
2018-11-06T06:38:51.043Z,39.67
2018-11-06T06:39:25.914Z,38.00
2018-11-06T06:40:00.077Z,38.88
2018-11-06T06:40:34.851Z,37.38
2018-11-06T06:41:09.016Z,39.25
2018-11-06T06:41:43.211Z,36.13
2018-11-06T06:42:17.731Z,34.92
2018-11-06T06:42:51.884Z,38.30
2018-11-06T06:43:26.290Z,39.70
2018-11-06T06:44:00.382Z,35.48
2018-11-06T06:44:34.864Z,40.80
2018-11-06T06:45:12.402Z,41.73
2018-11-06T06:45:46.866Z,38.40
2018-11-06T06:46:21.067Z,37.63
2018-11-06T06:46:55.298Z,34.25
2018-11-06T06:47:30.098Z,39.55
2018-11-06T06:48:04.418Z,36.53
2018-11-06T06:48:38.857Z,39.10
2018-11-06T06:49:13.293Z,38.02
2018-11-06T06:49:47.389Z,39.48
2018-11-06T06:50:21.544Z,34.88
2018-11-06T06:50:56.365Z,35.90
2018-11-06T06:51:30.705Z,34.78
2018-11-06T06:52:05.227Z,32.90
2018-11-06T06:52:40.478Z,41.30
2018-11-06T06:53:14.603Z,38.75
2018-11-06T06:53:48.713Z,33.92
2018-11-06T06:54:23.556Z,38.58
2018-11-06T06:54:58.114Z,39.38
2018-11-06T06:55:33.042Z,41.90
2018-11-06T06:56:07.155Z,33.92
2018-11-06T06:56:41.299Z,34.95
2018-11-06T06:57:15.754Z,36.88
2018-11-06T06:57:49.849Z,36.77
2018-11-06T06:58:23.965Z,35.48
2018-11-06T06:58:58.385Z,43.30
2018-11-06T06:59:32.642Z,38.58
2018-11-06T07:00:08.871Z,40.85
2018-11-06T07:00:43.179Z,36.80
2018-11-06T07:01:17.325Z,34.63
2018-11-06T07:01:51.772Z,42.08
2018-11-06T07:02:26.218Z,36.83
2018-11-06T07:03:00.891Z,38.75
2018-11-06T07:03:35.029Z,34.33
2018-11-06T07:04:09.106Z,37.40
2018-11-06T07:04:43.215Z,35.17
2018-11-06T07:05:18.661Z,32.95
2018-11-06T07:05:52.771Z,40.58
2018-11-06T07:06:26.883Z,36.80
2018-11-06T07:07:01.079Z,37.17
2018-11-06T07:07:35.787Z,38.50
2018-11-06T07:08:09.894Z,32.85
2018-11-06T07:08:44.024Z,35.80
2018-11-06T07:09:18.125Z,36.33
2018-11-06T07:09:52.214Z,36.63
2018-11-06T07:10:26.706Z,35.23
2018-11-06T07:11:00.782Z,36.75
2018-11-06T07:11:34.960Z,36.88
2018-11-06T07:12:09.717Z,34.08
2018-11-06T07:12:44.716Z,37.60
2018-11-06T07:13:19.012Z,34.35
2018-11-06T07:13:53.121Z,33.90
2018-11-06T07:14:27.566Z,38.55
2018-11-06T07:15:01.804Z,34.18
2018-11-06T07:15:35.889Z,34.10
2018-11-06T07:16:10.005Z,35.05
2018-11-06T07:16:44.146Z,41.25
2018-11-06T07:17:18.278Z,38.90
2018-11-06T07:17:52.870Z,37.88
2018-11-06T07:18:27.302Z,34.48
2018-11-06T07:19:01.584Z,32.33
2018-11-06T07:19:35.681Z,36.03
2018-11-06T07:20:13.362Z,34.83
2018-11-06T07:20:47.451Z,33.63
2018-11-06T07:21:21.558Z,32.33
2018-11-06T07:21:55.660Z,33.40
2018-11-06T07:22:29.897Z,34.30
2018-11-06T07:23:04.523Z,39.20
2018-11-06T07:23:39.005Z,33.20
2018-11-06T07:24:13.090Z,36.70
2018-11-06T07:24:47.170Z,42.10
2018-11-06T07:25:21.694Z,35.15
2018-11-06T07:25:56.091Z,35.13
2018-11-06T07:26:30.214Z,41.20
2018-11-06T07:27:05.201Z,35.23
2018-11-06T07:27:40.009Z,35.63
2018-11-06T07:28:14.109Z,40.80
2018-11-06T07:28:48.262Z,35.10
2018-11-06T07:29:29.425Z,31.15
2018-11-06T07:30:03.686Z,34.13
2018-11-06T07:30:38.149Z,34.13
2018-11-06T07:31:12.604Z,38.05
2018-11-06T07:31:46.755Z,33.75
2018-11-06T07:32:21.225Z,31.87
2018-11-06T07:32:55.294Z,33.95
2018-11-06T07:33:29.398Z,33.33
2018-11-06T07:34:03.538Z,39.27
2018-11-06T07:34:37.847Z,33.02
2018-11-06T07:35:12.864Z,35.30